sensor_id;sensor_type;location;lat;lon;timestamp;P1;durP1;ratioP1;P2;durP2;ratioP2
4508;SDS011;2267;48.816;9.230;2022-12-07T00:03:48;9.57;;;8.67;;
4508;SDS011;2267;48.816;9.230;2022-12-07T00:06:17;9.23;;;8.40;;
4508;SDS011;2267;48.816;9.230;2022-12-07T00:08:45;10.13;;;8.70;;
4508;SDS011;2267;48.816;9.230;2022-12-07T00:11:14;10.67;;;9.77;;
4508;SDS011;2267;48.816;9.230;2022-12-07T00:13:43;9.40;;;8.70;;
4508;SDS011;2267;48.816;9.230;2022-12-07T00:16:11;9.40;;;8.60;;
4508;SDS011;2267;48.816;9.230;2022-12-07T00:18:38;9.13;;;8.43;;
4508;SDS011;2267;48.816;9.230;2022-12-07T00:21:10;10.37;;;9.43;;
4508;SDS011;2267;48.816;9.230;2022-12-07T00:23:37;10.10;;;9.20;;
4508;SDS011;2267;48.816;9.230;2022-12-07T00:28:35;9.50;;;8.80;;
4508;SDS011;2267;48.816;9.230;2022-12-07T00:31:03;10.10;;;9.33;;
4508;SDS011;2267;48.816;9.230;2022-12-07T00:33:36;8.57;;;7.87;;
4508;SDS011;2267;48.816;9.230;2022-12-07T00:36:08;11.03;;;10.03;;
4508;SDS011;2267;48.816;9.230;2022-12-07T00:38:37;10.20;;;9.40;;
4508;SDS011;2267;48.816;9.230;2022-12-07T00:41:06;10.33;;;9.37;;
4508;SDS011;2267;48.816;9.230;2022-12-07T00:43:36;9.70;;;8.90;;
4508;SDS011;2267;48.816;9.230;2022-12-07T00:46:03;9.60;;;8.90;;
4508;SDS011;2267;48.816;9.230;2022-12-07T00:48:31;10.03;;;9.23;;
4508;SDS011;2267;48.816;9.230;2022-12-07T00:50:58;10.57;;;9.77;;
4508;SDS011;2267;48.816;9.230;2022-12-07T00:53:25;9.83;;;9.03;;
4508;SDS011;2267;48.816;9.230;2022-12-07T00:55:52;9.73;;;9.00;;
4508;SDS011;2267;48.816;9.230;2022-12-07T00:58:19;9.47;;;8.67;;
4508;SDS011;2267;48.816;9.230;2022-12-07T01:00:46;11.20;;;10.23;;
4508;SDS011;2267;48.816;9.230;2022-12-07T01:03:16;10.80;;;9.90;;
4508;SDS011;2267;48.816;9.230;2022-12-07T01:05:51;10.73;;;9.90;;
4508;SDS011;2267;48.816;9.230;2022-12-07T01:08:19;10.70;;;9.80;;
4508;SDS011;2267;48.816;9.230;2022-12-07T01:10:47;11.00;;;10.10;;
4508;SDS011;2267;48.816;9.230;2022-12-07T01:13:14;11.57;;;10.67;;
4508;SDS011;2267;48.816;9.230;2022-12-07T01:15:42;9.93;;;9.20;;
4508;SDS011;2267;48.816;9.230;2022-12-07T01:18:10;10.60;;;9.60;;
4508;SDS011;2267;48.816;9.230;2022-12-07T01:20:37;10.63;;;9.73;;
4508;SDS011;2267;48.816;9.230;2022-12-07T01:23:04;10.87;;;9.93;;
4508;SDS011;2267;48.816;9.230;2022-12-07T01:25:31;10.70;;;9.80;;
4508;SDS011;2267;48.816;9.230;2022-12-07T01:27:58;11.80;;;10.90;;
4508;SDS011;2267;48.816;9.230;2022-12-07T01:30:25;10.30;;;9.50;;
4508;SDS011;2267;48.816;9.230;2022-12-07T01:32:52;11.30;;;10.40;;
4508;SDS011;2267;48.816;9.230;2022-12-07T01:35:18;11.63;;;10.50;;
4508;SDS011;2267;48.816;9.230;2022-12-07T01:37:45;12.73;;;11.73;;
4508;SDS011;2267;48.816;9.230;2022-12-07T01:40:12;11.67;;;10.70;;
4508;SDS011;2267;48.816;9.230;2022-12-07T01:42:39;11.13;;;10.23;;
4508;SDS011;2267;48.816;9.230;2022-12-07T01:47:46;11.73;;;10.73;;
4508;SDS011;2267;48.816;9.230;2022-12-07T01:50:17;10.77;;;9.90;;
4508;SDS011;2267;48.816;9.230;2022-12-07T01:52:44;11.83;;;10.83;;
4508;SDS011;2267;48.816;9.230;2022-12-07T01:55:14;11.17;;;10.20;;
4508;SDS011;2267;48.816;9.230;2022-12-07T01:57:43;12.13;;;11.07;;
4508;SDS011;2267;48.816;9.230;2022-12-07T02:00:14;11.03;;;10.23;;
4508;SDS011;2267;48.816;9.230;2022-12-07T02:02:42;11.17;;;10.17;;
4508;SDS011;2267;48.816;9.230;2022-12-07T02:05:10;10.97;;;10.10;;
4508;SDS011;2267;48.816;9.230;2022-12-07T02:07:38;11.13;;;10.30;;
4508;SDS011;2267;48.816;9.230;2022-12-07T02:10:15;11.80;;;10.90;;
4508;SDS011;2267;48.816;9.230;2022-12-07T02:12:44;12.07;;;10.97;;
4508;SDS011;2267;48.816;9.230;2022-12-07T02:15:16;11.43;;;10.53;;
4508;SDS011;2267;48.816;9.230;2022-12-07T02:20:33;12.37;;;11.37;;
4508;SDS011;2267;48.816;9.230;2022-12-07T02:37:28;11.10;;;10.20;;
4508;SDS011;2267;48.816;9.230;2022-12-07T02:42:53;11.77;;;10.77;;
4508;SDS011;2267;48.816;9.230;2022-12-07T02:45:27;11.37;;;10.43;;
4508;SDS011;2267;48.816;9.230;2022-12-07T02:47:57;11.07;;;10.10;;
4508;SDS011;2267;48.816;9.230;2022-12-07T02:50:26;12.10;;;11.10;;
4508;SDS011;2267;48.816;9.230;2022-12-07T02:52:54;11.90;;;10.90;;
4508;SDS011;2267;48.816;9.230;2022-12-07T02:55:23;11.17;;;10.27;;
4508;SDS011;2267;48.816;9.230;2022-12-07T02:58:16;11.63;;;10.73;;
4508;SDS011;2267;48.816;9.230;2022-12-07T03:06:56;10.90;;;10.00;;
4508;SDS011;2267;48.816;9.230;2022-12-07T03:12:38;12.00;;;10.80;;
4508;SDS011;2267;48.816;9.230;2022-12-07T03:15:32;11.93;;;11.03;;
4508;SDS011;2267;48.816;9.230;2022-12-07T03:18:05;11.00;;;10.10;;
4508;SDS011;2267;48.816;9.230;2022-12-07T03:20:34;11.37;;;10.37;;
4508;SDS011;2267;48.816;9.230;2022-12-07T03:23:04;10.67;;;9.87;;
4508;SDS011;2267;48.816;9.230;2022-12-07T03:25:38;11.23;;;10.20;;
4508;SDS011;2267;48.816;9.230;2022-12-07T03:28:09;11.17;;;10.27;;
4508;SDS011;2267;48.816;9.230;2022-12-07T03:30:42;11.47;;;10.53;;
4508;SDS011;2267;48.816;9.230;2022-12-07T03:33:12;10.90;;;10.00;;
4508;SDS011;2267;48.816;9.230;2022-12-07T03:35:45;11.57;;;10.40;;
4508;SDS011;2267;48.816;9.230;2022-12-07T03:40:49;14.83;;;9.37;;
4508;SDS011;2267;48.816;9.230;2022-12-07T03:43:21;11.23;;;10.33;;
4508;SDS011;2267;48.816;9.230;2022-12-07T03:45:53;10.57;;;9.77;;
4508;SDS011;2267;48.816;9.230;2022-12-07T03:53:51;10.27;;;9.43;;
4508;SDS011;2267;48.816;9.230;2022-12-07T03:56:36;11.20;;;10.30;;
4508;SDS011;2267;48.816;9.230;2022-12-07T03:59:03;11.70;;;10.70;;
4508;SDS011;2267;48.816;9.230;2022-12-07T04:01:30;9.70;;;8.90;;
4508;SDS011;2267;48.816;9.230;2022-12-07T04:03:58;10.33;;;9.43;;
4508;SDS011;2267;48.816;9.230;2022-12-07T04:06:24;11.03;;;10.13;;
4508;SDS011;2267;48.816;9.230;2022-12-07T04:08:51;11.40;;;10.33;;
4508;SDS011;2267;48.816;9.230;2022-12-07T04:11:18;10.40;;;9.60;;
4508;SDS011;2267;48.816;9.230;2022-12-07T04:13:45;12.43;;;11.33;;
4508;SDS011;2267;48.816;9.230;2022-12-07T04:16:30;11.67;;;10.57;;
4508;SDS011;2267;48.816;9.230;2022-12-07T04:18:57;10.57;;;9.77;;
4508;SDS011;2267;48.816;9.230;2022-12-07T04:21:24;10.73;;;9.83;;
4508;SDS011;2267;48.816;9.230;2022-12-07T04:23:51;11.47;;;10.57;;
4508;SDS011;2267;48.816;9.230;2022-12-07T04:26:17;11.23;;;10.20;;
4508;SDS011;2267;48.816;9.230;2022-12-07T04:28:44;11.33;;;10.43;;
4508;SDS011;2267;48.816;9.230;2022-12-07T04:31:11;11.23;;;10.23;;
4508;SDS011;2267;48.816;9.230;2022-12-07T04:33:38;11.80;;;10.87;;
4508;SDS011;2267;48.816;9.230;2022-12-07T04:36:05;11.20;;;10.10;;
4508;SDS011;2267;48.816;9.230;2022-12-07T04:38:32;12.53;;;11.43;;
4508;SDS011;2267;48.816;9.230;2022-12-07T04:41:03;11.77;;;10.77;;
4508;SDS011;2267;48.816;9.230;2022-12-07T04:43:32;12.00;;;10.90;;
4508;SDS011;2267;48.816;9.230;2022-12-07T04:45:59;12.03;;;10.90;;
4508;SDS011;2267;48.816;9.230;2022-12-07T04:48:26;11.00;;;9.97;;
4508;SDS011;2267;48.816;9.230;2022-12-07T04:50:53;10.87;;;9.97;;
4508;SDS011;2267;48.816;9.230;2022-12-07T04:53:20;11.00;;;10.10;;
4508;SDS011;2267;48.816;9.230;2022-12-07T04:55:47;10.93;;;10.03;;
4508;SDS011;2267;48.816;9.230;2022-12-07T04:58:14;9.97;;;9.20;;
4508;SDS011;2267;48.816;9.230;2022-12-07T05:00:41;11.13;;;10.13;;
4508;SDS011;2267;48.816;9.230;2022-12-07T05:03:08;11.40;;;10.50;;
4508;SDS011;2267;48.816;9.230;2022-12-07T05:05:34;10.50;;;9.60;;
4508;SDS011;2267;48.816;9.230;2022-12-07T05:08:01;11.40;;;10.40;;
4508;SDS011;2267;48.816;9.230;2022-12-07T05:10:28;10.93;;;9.93;;
4508;SDS011;2267;48.816;9.230;2022-12-07T05:12:55;11.07;;;10.17;;
4508;SDS011;2267;48.816;9.230;2022-12-07T05:15:22;11.50;;;10.60;;
4508;SDS011;2267;48.816;9.230;2022-12-07T05:17:48;11.83;;;10.83;;
4508;SDS011;2267;48.816;9.230;2022-12-07T05:20:15;12.00;;;10.80;;
4508;SDS011;2267;48.816;9.230;2022-12-07T05:22:42;11.97;;;10.97;;
4508;SDS011;2267;48.816;9.230;2022-12-07T05:25:09;12.27;;;10.67;;
4508;SDS011;2267;48.816;9.230;2022-12-07T05:27:36;11.77;;;10.73;;
4508;SDS011;2267;48.816;9.230;2022-12-07T05:30:03;11.53;;;10.63;;
4508;SDS011;2267;48.816;9.230;2022-12-07T05:32:31;11.80;;;10.80;;
4508;SDS011;2267;48.816;9.230;2022-12-07T05:34:58;10.70;;;9.80;;
4508;SDS011;2267;48.816;9.230;2022-12-07T05:37:24;11.43;;;10.40;;
4508;SDS011;2267;48.816;9.230;2022-12-07T05:39:51;10.87;;;9.87;;
4508;SDS011;2267;48.816;9.230;2022-12-07T05:42:18;13.10;;;12.00;;
4508;SDS011;2267;48.816;9.230;2022-12-07T05:44:45;11.40;;;10.50;;
4508;SDS011;2267;48.816;9.230;2022-12-07T05:47:13;11.67;;;10.57;;
4508;SDS011;2267;48.816;9.230;2022-12-07T05:49:40;11.57;;;10.57;;
4508;SDS011;2267;48.816;9.230;2022-12-07T05:52:07;11.73;;;10.70;;
4508;SDS011;2267;48.816;9.230;2022-12-07T05:54:34;9.87;;;9.00;;
4508;SDS011;2267;48.816;9.230;2022-12-07T05:57:01;9.90;;;9.10;;
4508;SDS011;2267;48.816;9.230;2022-12-07T05:59:28;11.80;;;10.80;;
4508;SDS011;2267;48.816;9.230;2022-12-07T06:01:56;10.97;;;10.17;;
4508;SDS011;2267;48.816;9.230;2022-12-07T06:04:29;12.93;;;11.83;;
4508;SDS011;2267;48.816;9.230;2022-12-07T06:06:58;11.73;;;10.80;;
4508;SDS011;2267;48.816;9.230;2022-12-07T06:09:26;11.50;;;10.60;;
4508;SDS011;2267;48.816;9.230;2022-12-07T06:11:54;11.27;;;10.27;;
4508;SDS011;2267;48.816;9.230;2022-12-07T06:15:00;11.90;;;10.83;;
4508;SDS011;2267;48.816;9.230;2022-12-07T06:17:27;11.97;;;10.97;;
4508;SDS011;2267;48.816;9.230;2022-12-07T06:19:54;11.33;;;10.43;;
4508;SDS011;2267;48.816;9.230;2022-12-07T06:22:20;12.47;;;11.37;;
4508;SDS011;2267;48.816;9.230;2022-12-07T06:24:47;12.70;;;11.70;;
4508;SDS011;2267;48.816;9.230;2022-12-07T06:27:14;12.77;;;11.60;;
4508;SDS011;2267;48.816;9.230;2022-12-07T06:29:41;12.40;;;11.40;;
4508;SDS011;2267;48.816;9.230;2022-12-07T06:32:08;10.97;;;10.07;;
4508;SDS011;2267;48.816;9.230;2022-12-07T06:34:35;11.70;;;10.70;;
4508;SDS011;2267;48.816;9.230;2022-12-07T06:37:02;12.30;;;11.30;;
4508;SDS011;2267;48.816;9.230;2022-12-07T06:39:30;11.93;;;10.87;;
4508;SDS011;2267;48.816;9.230;2022-12-07T06:41:57;11.17;;;10.07;;
4508;SDS011;2267;48.816;9.230;2022-12-07T06:44:24;12.37;;;11.17;;
4508;SDS011;2267;48.816;9.230;2022-12-07T06:46:51;11.07;;;10.10;;
4508;SDS011;2267;48.816;9.230;2022-12-07T06:49:38;11.10;;;10.17;;
4508;SDS011;2267;48.816;9.230;2022-12-07T06:52:05;12.17;;;11.17;;
4508;SDS011;2267;48.816;9.230;2022-12-07T06:54:31;12.87;;;11.67;;
4508;SDS011;2267;48.816;9.230;2022-12-07T06:56:58;12.03;;;10.93;;
4508;SDS011;2267;48.816;9.230;2022-12-07T06:59:25;11.23;;;10.23;;
4508;SDS011;2267;48.816;9.230;2022-12-07T07:01:52;11.60;;;10.60;;
4508;SDS011;2267;48.816;9.230;2022-12-07T07:04:19;12.03;;;11.03;;
4508;SDS011;2267;48.816;9.230;2022-12-07T07:06:46;13.83;;;12.40;;
4508;SDS011;2267;48.816;9.230;2022-12-07T07:09:13;12.43;;;11.33;;
4508;SDS011;2267;48.816;9.230;2022-12-07T07:11:40;11.10;;;10.20;;
4508;SDS011;2267;48.816;9.230;2022-12-07T07:14:06;11.67;;;10.67;;
4508;SDS011;2267;48.816;9.230;2022-12-07T07:16:33;12.90;;;11.70;;
4508;SDS011;2267;48.816;9.230;2022-12-07T07:19:00;12.97;;;11.97;;
4508;SDS011;2267;48.816;9.230;2022-12-07T07:21:27;11.23;;;10.23;;
4508;SDS011;2267;48.816;9.230;2022-12-07T07:23:54;13.77;;;12.03;;
4508;SDS011;2267;48.816;9.230;2022-12-07T07:26:20;10.63;;;9.70;;
4508;SDS011;2267;48.816;9.230;2022-12-07T07:28:48;10.80;;;9.73;;
4508;SDS011;2267;48.816;9.230;2022-12-07T07:31:15;10.70;;;9.80;;
4508;SDS011;2267;48.816;9.230;2022-12-07T07:33:42;10.50;;;9.60;;
4508;SDS011;2267;48.816;9.230;2022-12-07T07:36:09;13.53;;;12.13;;
4508;SDS011;2267;48.816;9.230;2022-12-07T07:38:36;11.30;;;10.20;;
4508;SDS011;2267;48.816;9.230;2022-12-07T07:41:02;13.53;;;12.17;;
4508;SDS011;2267;48.816;9.230;2022-12-07T07:43:29;14.03;;;11.67;;
4508;SDS011;2267;48.816;9.230;2022-12-07T07:45:56;13.00;;;11.07;;
4508;SDS011;2267;48.816;9.230;2022-12-07T07:48:23;11.63;;;10.53;;
4508;SDS011;2267;48.816;9.230;2022-12-07T07:50:51;12.93;;;11.73;;
4508;SDS011;2267;48.816;9.230;2022-12-07T07:53:18;10.67;;;9.57;;
4508;SDS011;2267;48.816;9.230;2022-12-07T07:55:51;9.33;;;8.43;;
4508;SDS011;2267;48.816;9.230;2022-12-07T07:58:20;8.87;;;8.07;;
4508;SDS011;2267;48.816;9.230;2022-12-07T08:00:48;10.30;;;8.43;;
4508;SDS011;2267;48.816;9.230;2022-12-07T08:03:14;9.73;;;8.80;;
4508;SDS011;2267;48.816;9.230;2022-12-07T08:05:42;10.20;;;9.30;;
4508;SDS011;2267;48.816;9.230;2022-12-07T08:08:09;11.33;;;8.83;;
4508;SDS011;2267;48.816;9.230;2022-12-07T08:10:35;8.83;;;8.13;;
4508;SDS011;2267;48.816;9.230;2022-12-07T08:13:03;8.50;;;7.67;;
4508;SDS011;2267;48.816;9.230;2022-12-07T08:15:44;8.07;;;7.43;;
4508;SDS011;2267;48.816;9.230;2022-12-07T08:18:13;8.07;;;7.47;;
4508;SDS011;2267;48.816;9.230;2022-12-07T08:20:41;7.70;;;7.10;;
4508;SDS011;2267;48.816;9.230;2022-12-07T08:23:09;8.60;;;7.80;;
4508;SDS011;2267;48.816;9.230;2022-12-07T08:25:36;7.93;;;7.17;;
4508;SDS011;2267;48.816;9.230;2022-12-07T08:28:03;7.77;;;7.17;;
4508;SDS011;2267;48.816;9.230;2022-12-07T08:30:31;7.87;;;7.17;;
4508;SDS011;2267;48.816;9.230;2022-12-07T08:32:57;8.57;;;7.80;;
4508;SDS011;2267;48.816;9.230;2022-12-07T08:35:24;7.90;;;7.20;;
4508;SDS011;2267;48.816;9.230;2022-12-07T08:37:52;7.67;;;6.97;;
4508;SDS011;2267;48.816;9.230;2022-12-07T08:40:19;7.63;;;7.03;;
4508;SDS011;2267;48.816;9.230;2022-12-07T08:42:50;10.40;;;7.53;;
4508;SDS011;2267;48.816;9.230;2022-12-07T08:45:17;8.33;;;7.57;;
4508;SDS011;2267;48.816;9.230;2022-12-07T08:48:00;7.67;;;6.97;;
4508;SDS011;2267;48.816;9.230;2022-12-07T08:50:32;8.90;;;8.03;;
4508;SDS011;2267;48.816;9.230;2022-12-07T08:53:00;7.40;;;6.70;;
4508;SDS011;2267;48.816;9.230;2022-12-07T08:55:27;6.83;;;6.23;;
4508;SDS011;2267;48.816;9.230;2022-12-07T08:57:55;8.00;;;7.20;;
4508;SDS011;2267;48.816;9.230;2022-12-07T09:00:25;7.67;;;6.97;;
4508;SDS011;2267;48.816;9.230;2022-12-07T09:02:53;8.17;;;7.30;;
4508;SDS011;2267;48.816;9.230;2022-12-07T09:05:20;7.00;;;6.40;;
4508;SDS011;2267;48.816;9.230;2022-12-07T09:07:48;8.20;;;6.70;;
4508;SDS011;2267;48.816;9.230;2022-12-07T09:10:18;7.20;;;6.50;;
4508;SDS011;2267;48.816;9.230;2022-12-07T09:12:45;6.57;;;5.97;;
4508;SDS011;2267;48.816;9.230;2022-12-07T09:15:12;7.47;;;6.70;;
4508;SDS011;2267;48.816;9.230;2022-12-07T09:17:39;7.10;;;6.50;;
4508;SDS011;2267;48.816;9.230;2022-12-07T09:20:05;8.73;;;7.93;;
4508;SDS011;2267;48.816;9.230;2022-12-07T09:22:33;7.63;;;6.30;;
4508;SDS011;2267;48.816;9.230;2022-12-07T09:25:00;10.30;;;6.70;;
4508;SDS011;2267;48.816;9.230;2022-12-07T09:27:27;6.87;;;6.30;;
4508;SDS011;2267;48.816;9.230;2022-12-07T09:29:54;6.27;;;5.70;;
4508;SDS011;2267;48.816;9.230;2022-12-07T09:32:21;7.67;;;6.90;;
4508;SDS011;2267;48.816;9.230;2022-12-07T09:34:49;6.87;;;6.10;;
4508;SDS011;2267;48.816;9.230;2022-12-07T09:37:15;8.77;;;6.47;;
4508;SDS011;2267;48.816;9.230;2022-12-07T09:39:42;7.53;;;6.83;;
4508;SDS011;2267;48.816;9.230;2022-12-07T09:42:26;6.73;;;6.17;;
4508;SDS011;2267;48.816;9.230;2022-12-07T09:45:02;5.70;;;5.13;;
4508;SDS011;2267;48.816;9.230;2022-12-07T09:47:32;5.30;;;4.27;;
4508;SDS011;2267;48.816;9.230;2022-12-07T09:50:03;4.60;;;4.30;;
4508;SDS011;2267;48.816;9.230;2022-12-07T09:52:33;4.83;;;4.40;;
4508;SDS011;2267;48.816;9.230;2022-12-07T09:55:08;5.10;;;4.60;;
4508;SDS011;2267;48.816;9.230;2022-12-07T09:57:39;10.23;;;5.33;;
4508;SDS011;2267;48.816;9.230;2022-12-07T10:00:12;16.00;;;6.23;;
4508;SDS011;2267;48.816;9.230;2022-12-07T10:02:41;7.20;;;5.60;;
4508;SDS011;2267;48.816;9.230;2022-12-07T10:05:35;6.73;;;5.20;;
4508;SDS011;2267;48.816;9.230;2022-12-07T10:08:04;5.23;;;4.73;;
4508;SDS011;2267;48.816;9.230;2022-12-07T10:10:34;7.07;;;5.47;;
4508;SDS011;2267;48.816;9.230;2022-12-07T10:13:12;5.00;;;4.50;;
4508;SDS011;2267;48.816;9.230;2022-12-07T10:15:47;4.73;;;4.33;;
4508;SDS011;2267;48.816;9.230;2022-12-07T10:21:00;4.80;;;4.40;;
4508;SDS011;2267;48.816;9.230;2022-12-07T10:23:30;5.40;;;4.90;;
4508;SDS011;2267;48.816;9.230;2022-12-07T10:25:57;4.80;;;4.40;;
4508;SDS011;2267;48.816;9.230;2022-12-07T10:28:27;22.00;;;7.27;;
4508;SDS011;2267;48.816;9.230;2022-12-07T10:31:17;6.23;;;5.50;;
4508;SDS011;2267;48.816;9.230;2022-12-07T10:33:58;5.20;;;4.80;;
4508;SDS011;2267;48.816;9.230;2022-12-07T10:36:30;4.83;;;4.43;;
4508;SDS011;2267;48.816;9.230;2022-12-07T10:39:13;4.90;;;4.50;;
4508;SDS011;2267;48.816;9.230;2022-12-07T10:42:03;5.20;;;4.80;;
4508;SDS011;2267;48.816;9.230;2022-12-07T10:44:33;5.13;;;4.63;;
4508;SDS011;2267;48.816;9.230;2022-12-07T10:55:31;7.83;;;5.33;;
4508;SDS011;2267;48.816;9.230;2022-12-07T11:01:14;6.00;;;5.40;;
4508;SDS011;2267;48.816;9.230;2022-12-07T11:18:22;5.17;;;4.60;;
4508;SDS011;2267;48.816;9.230;2022-12-07T11:21:00;4.60;;;4.20;;
4508;SDS011;2267;48.816;9.230;2022-12-07T11:23:40;5.57;;;4.47;;
4508;SDS011;2267;48.816;9.230;2022-12-07T11:31:37;5.10;;;4.63;;
4508;SDS011;2267;48.816;9.230;2022-12-07T11:37:32;3.97;;;3.57;;
4508;SDS011;2267;48.816;9.230;2022-12-07T11:40:09;4.47;;;3.33;;
4508;SDS011;2267;48.816;9.230;2022-12-07T11:45:37;3.30;;;3.00;;
4508;SDS011;2267;48.816;9.230;2022-12-07T11:48:24;4.90;;;4.50;;
4508;SDS011;2267;48.816;9.230;2022-12-07T11:50:59;5.53;;;5.03;;
4508;SDS011;2267;48.816;9.230;2022-12-07T12:04:01;6.73;;;6.10;;
4508;SDS011;2267;48.816;9.230;2022-12-07T12:06:33;6.53;;;6.03;;
4508;SDS011;2267;48.816;9.230;2022-12-07T12:12:05;9.83;;;7.47;;
4508;SDS011;2267;48.816;9.230;2022-12-07T12:20:42;6.20;;;5.60;;
4508;SDS011;2267;48.816;9.230;2022-12-07T12:23:18;7.03;;;6.43;;
4508;SDS011;2267;48.816;9.230;2022-12-07T12:25:52;7.73;;;7.10;;
4508;SDS011;2267;48.816;9.230;2022-12-07T12:33:44;8.50;;;7.60;;
4508;SDS011;2267;48.816;9.230;2022-12-07T12:36:26;8.00;;;7.30;;
4508;SDS011;2267;48.816;9.230;2022-12-07T12:46:47;7.30;;;6.63;;
4508;SDS011;2267;48.816;9.230;2022-12-07T12:51:51;7.73;;;6.63;;
4508;SDS011;2267;48.816;9.230;2022-12-07T13:04:59;7.87;;;7.27;;
4508;SDS011;2267;48.816;9.230;2022-12-07T13:15:38;6.60;;;6.00;;
4508;SDS011;2267;48.816;9.230;2022-12-07T13:28:44;8.17;;;7.37;;
4508;SDS011;2267;48.816;9.230;2022-12-07T13:31:34;7.80;;;7.10;;
4508;SDS011;2267;48.816;9.230;2022-12-07T13:36:52;7.17;;;6.60;;
4508;SDS011;2267;48.816;9.230;2022-12-07T13:39:21;9.70;;;8.87;;
4508;SDS011;2267;48.816;9.230;2022-12-07T13:41:53;9.80;;;8.90;;
4508;SDS011;2267;48.816;9.230;2022-12-07T13:44:23;12.40;;;9.30;;
4508;SDS011;2267;48.816;9.230;2022-12-07T13:46:54;8.57;;;7.10;;
4508;SDS011;2267;48.816;9.230;2022-12-07T13:49:30;10.00;;;8.27;;
4508;SDS011;2267;48.816;9.230;2022-12-07T13:54:48;9.50;;;8.60;;
4508;SDS011;2267;48.816;9.230;2022-12-07T13:57:21;10.67;;;8.80;;
4508;SDS011;2267;48.816;9.230;2022-12-07T13:59:50;8.83;;;8.03;;
4508;SDS011;2267;48.816;9.230;2022-12-07T14:02:28;8.97;;;8.20;;
4508;SDS011;2267;48.816;9.230;2022-12-07T14:07:55;7.70;;;7.00;;
4508;SDS011;2267;48.816;9.230;2022-12-07T14:10:30;6.70;;;6.20;;
4508;SDS011;2267;48.816;9.230;2022-12-07T14:12:57;7.90;;;6.60;;
4508;SDS011;2267;48.816;9.230;2022-12-07T14:15:27;8.70;;;7.90;;
4508;SDS011;2267;48.816;9.230;2022-12-07T14:17:57;8.80;;;7.30;;
4508;SDS011;2267;48.816;9.230;2022-12-07T14:20:30;8.80;;;7.90;;
4508;SDS011;2267;48.816;9.230;2022-12-07T14:22:59;10.57;;;7.73;;
4508;SDS011;2267;48.816;9.230;2022-12-07T14:25:44;9.60;;;8.60;;
4508;SDS011;2267;48.816;9.230;2022-12-07T14:31:03;9.40;;;8.60;;
4508;SDS011;2267;48.816;9.230;2022-12-07T14:33:34;8.13;;;7.43;;
4508;SDS011;2267;48.816;9.230;2022-12-07T14:36:01;10.23;;;8.97;;
4508;SDS011;2267;48.816;9.230;2022-12-07T14:38:28;9.07;;;8.27;;
4508;SDS011;2267;48.816;9.230;2022-12-07T14:40:55;9.23;;;8.43;;
4508;SDS011;2267;48.816;9.230;2022-12-07T14:43:45;9.33;;;8.43;;
4508;SDS011;2267;48.816;9.230;2022-12-07T14:46:32;9.60;;;8.70;;
4508;SDS011;2267;48.816;9.230;2022-12-07T14:48:59;10.40;;;9.47;;
4508;SDS011;2267;48.816;9.230;2022-12-07T14:51:46;9.37;;;8.57;;
4508;SDS011;2267;48.816;9.230;2022-12-07T14:54:33;8.80;;;8.00;;
4508;SDS011;2267;48.816;9.230;2022-12-07T14:57:00;7.80;;;7.10;;
4508;SDS011;2267;48.816;9.230;2022-12-07T14:59:27;9.40;;;8.47;;
4508;SDS011;2267;48.816;9.230;2022-12-07T15:01:54;8.70;;;7.90;;
4508;SDS011;2267;48.816;9.230;2022-12-07T15:04:20;9.20;;;8.40;;
4508;SDS011;2267;48.816;9.230;2022-12-07T15:06:54;8.53;;;7.73;;
4508;SDS011;2267;48.816;9.230;2022-12-07T15:09:22;9.40;;;8.50;;
4508;SDS011;2267;48.816;9.230;2022-12-07T15:11:49;9.90;;;8.90;;
4508;SDS011;2267;48.816;9.230;2022-12-07T15:14:16;9.00;;;8.10;;
4508;SDS011;2267;48.816;9.230;2022-12-07T15:16:43;7.93;;;7.33;;
4508;SDS011;2267;48.816;9.230;2022-12-07T15:19:30;8.53;;;7.83;;
4508;SDS011;2267;48.816;9.230;2022-12-07T15:21:57;8.90;;;8.20;;
4508;SDS011;2267;48.816;9.230;2022-12-07T15:24:26;8.67;;;7.87;;
4508;SDS011;2267;48.816;9.230;2022-12-07T15:26:53;10.00;;;9.10;;
4508;SDS011;2267;48.816;9.230;2022-12-07T15:29:20;9.60;;;8.80;;
4508;SDS011;2267;48.816;9.230;2022-12-07T15:31:51;8.83;;;8.03;;
4508;SDS011;2267;48.816;9.230;2022-12-07T15:34:25;9.70;;;8.87;;
4508;SDS011;2267;48.816;9.230;2022-12-07T15:37:03;10.07;;;9.07;;
4508;SDS011;2267;48.816;9.230;2022-12-07T15:39:31;9.27;;;8.47;;
4508;SDS011;2267;48.816;9.230;2022-12-07T15:41:57;10.63;;;9.40;;
4508;SDS011;2267;48.816;9.230;2022-12-07T15:44:24;11.13;;;10.13;;
4508;SDS011;2267;48.816;9.230;2022-12-07T15:47:09;10.93;;;9.97;;
4508;SDS011;2267;48.816;9.230;2022-12-07T15:49:39;11.37;;;10.30;;
4508;SDS011;2267;48.816;9.230;2022-12-07T15:52:06;12.37;;;11.27;;
4508;SDS011;2267;48.816;9.230;2022-12-07T15:54:33;12.10;;;11.10;;
4508;SDS011;2267;48.816;9.230;2022-12-07T15:57:00;11.13;;;10.23;;
4508;SDS011;2267;48.816;9.230;2022-12-07T15:59:28;11.30;;;10.20;;
4508;SDS011;2267;48.816;9.230;2022-12-07T16:01:56;9.40;;;8.60;;
4508;SDS011;2267;48.816;9.230;2022-12-07T16:04:24;10.50;;;9.50;;
4508;SDS011;2267;48.816;9.230;2022-12-07T16:06:52;9.73;;;8.93;;
4508;SDS011;2267;48.816;9.230;2022-12-07T16:09:19;10.40;;;9.50;;
4508;SDS011;2267;48.816;9.230;2022-12-07T16:11:46;10.47;;;9.57;;
4508;SDS011;2267;48.816;9.230;2022-12-07T16:14:14;11.37;;;10.40;;
4508;SDS011;2267;48.816;9.230;2022-12-07T16:16:41;10.83;;;9.90;;
4508;SDS011;2267;48.816;9.230;2022-12-07T16:19:08;11.17;;;10.27;;
4508;SDS011;2267;48.816;9.230;2022-12-07T16:21:37;11.30;;;10.30;;
4508;SDS011;2267;48.816;9.230;2022-12-07T16:24:04;10.40;;;9.50;;
4508;SDS011;2267;48.816;9.230;2022-12-07T16:26:31;12.87;;;11.37;;
4508;SDS011;2267;48.816;9.230;2022-12-07T16:28:58;12.60;;;11.30;;
4508;SDS011;2267;48.816;9.230;2022-12-07T16:31:25;11.73;;;10.63;;
4508;SDS011;2267;48.816;9.230;2022-12-07T16:33:54;11.63;;;10.53;;
4508;SDS011;2267;48.816;9.230;2022-12-07T16:36:22;12.77;;;11.57;;
4508;SDS011;2267;48.816;9.230;2022-12-07T16:39:11;13.53;;;12.33;;
4508;SDS011;2267;48.816;9.230;2022-12-07T16:41:38;13.07;;;11.77;;
4508;SDS011;2267;48.816;9.230;2022-12-07T16:44:06;11.87;;;10.67;;
4508;SDS011;2267;48.816;9.230;2022-12-07T16:46:36;13.00;;;11.80;;
4508;SDS011;2267;48.816;9.230;2022-12-07T16:49:03;13.80;;;12.50;;
4508;SDS011;2267;48.816;9.230;2022-12-07T16:51:31;13.17;;;11.87;;
4508;SDS011;2267;48.816;9.230;2022-12-07T16:54:00;13.30;;;12.20;;
4508;SDS011;2267;48.816;9.230;2022-12-07T16:56:27;13.77;;;12.57;;
4508;SDS011;2267;48.816;9.230;2022-12-07T16:58:57;12.90;;;11.70;;
4508;SDS011;2267;48.816;9.230;2022-12-07T17:01:24;12.77;;;11.67;;
4508;SDS011;2267;48.816;9.230;2022-12-07T17:03:55;12.97;;;11.83;;
4508;SDS011;2267;48.816;9.230;2022-12-07T17:06:24;13.63;;;12.37;;
4508;SDS011;2267;48.816;9.230;2022-12-07T17:08:54;16.83;;;14.00;;
4508;SDS011;2267;48.816;9.230;2022-12-07T17:11:26;13.07;;;11.90;;
4508;SDS011;2267;48.816;9.230;2022-12-07T17:13:54;12.27;;;11.17;;
4508;SDS011;2267;48.816;9.230;2022-12-07T17:16:39;13.87;;;12.57;;
4508;SDS011;2267;48.816;9.230;2022-12-07T17:19:07;12.90;;;11.80;;
4508;SDS011;2267;48.816;9.230;2022-12-07T17:21:35;13.87;;;12.67;;
4508;SDS011;2267;48.816;9.230;2022-12-07T17:24:03;13.33;;;12.03;;
4508;SDS011;2267;48.816;9.230;2022-12-07T17:26:31;14.30;;;13.00;;
4508;SDS011;2267;48.816;9.230;2022-12-07T17:29:02;13.10;;;11.80;;
4508;SDS011;2267;48.816;9.230;2022-12-07T17:31:30;12.87;;;11.67;;
4508;SDS011;2267;48.816;9.230;2022-12-07T17:33:59;12.57;;;11.33;;
4508;SDS011;2267;48.816;9.230;2022-12-07T17:36:27;13.07;;;11.87;;
4508;SDS011;2267;48.816;9.230;2022-12-07T17:38:55;13.10;;;11.90;;
4508;SDS011;2267;48.816;9.230;2022-12-07T17:41:24;12.57;;;11.40;;
4508;SDS011;2267;48.816;9.230;2022-12-07T17:44:14;12.50;;;11.37;;
4508;SDS011;2267;48.816;9.230;2022-12-07T17:46:43;13.03;;;11.73;;
4508;SDS011;2267;48.816;9.230;2022-12-07T17:49:12;14.17;;;12.77;;
4508;SDS011;2267;48.816;9.230;2022-12-07T17:51:40;12.20;;;11.20;;
4508;SDS011;2267;48.816;9.230;2022-12-07T17:54:25;12.97;;;11.87;;
4508;SDS011;2267;48.816;9.230;2022-12-07T17:56:52;14.07;;;12.77;;
4508;SDS011;2267;48.816;9.230;2022-12-07T17:59:19;12.10;;;11.00;;